Time;durP1;ratioP1;P1;durP2;ratioP2;P2;SDS_P1;SDS_P2;PMS_P1;PMS_P2;Temp;Humidity;BMP_temperature;BMP_pressure;BME280_temperature;BME280_humidity;BME280_pressure;Samples;Min_cycle;Max_cycle;Signal;HPM_P1;HPM_P2
2022/07/04 00:00:30;;;;;;;5.60;4.62;;;;;;;16.70;75.88;100591.06;1663201;84;21068;-82
2022/07/04 00:03:00;;;;;;;5.40;4.85;;;;;;;16.70;75.88;100591.06;1663220;84;21573;-81
2022/07/04 00:05:27;;;;;;;5.20;4.70;;;;;;;16.70;76.40;100580.96;1668616;84;21155;-82
2022/07/04 00:07:54;;;;;;;6.05;5.05;;;;;;;16.72;76.33;100587.02;1668720;84;20964;-81
2022/07/04 00:10:21;;;;;;;5.35;4.85;;;;;;;16.71;76.41;100582.20;1663119;84;21037;-81
2022/07/04 00:12:48;;;;;;;4.95;4.28;;;;;;;16.69;76.33;100581.91;1663545;84;21076;-81
2022/07/04 00:15:15;;;;;;;5.03;3.92;;;;;;;16.67;76.13;100585.11;1668668;84;21019;-82
2022/07/04 00:17:42;;;;;;;5.03;4.53;;;;;;;16.60;75.99;100587.28;1663397;84;21128;-82
2022/07/04 00:20:11;;;;;;;4.53;4.12;;;;;;;16.57;76.14;100582.18;1663117;84;21701;-82
2022/07/04 00:22:38;;;;;;;4.85;4.35;;;;;;;16.55;76.18;100575.27;1663533;84;21052;-81
2022/07/04 00:25:06;;;;;;;5.28;4.05;;;;;;;16.53;75.93;100576.67;1663288;84;21056;-81
2022/07/04 00:27:33;;;;;;;5.53;4.12;;;;;;;16.50;76.16;100581.67;1663447;84;21290;-82
2022/07/04 00:30:00;;;;;;;5.47;4.05;;;;;;;16.48;76.03;100579.58;1663235;84;21132;-81
2022/07/04 00:32:27;;;;;;;5.17;4.12;;;;;;;16.45;76.03;100586.37;1663354;84;21223;-82
2022/07/04 00:34:55;;;;;;;5.90;4.30;;;;;;;16.45;76.07;100580.23;1663290;84;21067;-81
2022/07/04 00:37:22;;;;;;;5.05;4.20;;;;;;;16.43;76.04;100573.73;1663482;84;21505;-82
2022/07/04 00:39:49;;;;;;;6.58;4.33;;;;;;;16.46;76.23;100575.31;1663281;84;21064;-82
2022/07/04 00:42:16;;;;;;;4.37;3.70;;;;;;;16.53;76.65;100567.41;1663204;84;21142;-81
2022/07/04 00:44:43;;;;;;;4.58;4.17;;;;;;;16.68;76.63;100565.63;1668653;84;21036;-81
2022/07/04 00:47:10;;;;;;;5.03;4.00;;;;;;;16.81;76.28;100565.80;1663145;84;21521;-81
2022/07/04 00:49:37;;;;;;;4.95;4.15;;;;;;;16.94;76.21;100562.79;1663218;84;21043;-80
2022/07/04 00:52:05;;;;;;;4.42;3.50;;;;;;;17.08;76.06;100556.17;1663338;84;21119;-82
2022/07/04 00:54:32;;;;;;;4.45;3.70;;;;;;;17.20;75.67;100550.58;1663252;84;21145;-82
2022/07/04 00:57:01;;;;;;;4.30;3.90;;;;;;;17.33;75.50;100555.97;1663142;84;21076;-82
2022/07/04 00:59:28;;;;;;;4.20;3.80;;;;;;;17.36;74.95;100551.80;1663185;84;21147;-82
2022/07/04 01:01:56;;;;;;;5.05;4.42;;;;;;;17.39;74.52;100555.58;1663185;84;21081;-82
2022/07/04 01:04:23;;;;;;;4.42;3.95;;;;;;;17.45;74.48;100547.72;1668493;84;21107;-82
2022/07/04 01:06:50;;;;;;;4.83;4.28;;;;;;;17.49;74.27;100545.27;1663297;84;21751;-82
2022/07/04 01:09:17;;;;;;;5.60;4.62;;;;;;;17.56;73.94;100544.75;1663313;84;21045;-82
2022/07/04 01:11:44;;;;;;;4.53;4.00;;;;;;;17.62;73.83;100542.19;1663217;84;21072;-82
2022/07/04 01:14:11;;;;;;;6.60;4.67;;;;;;;17.68;73.81;100540.48;1668546;84;21050;-82
2022/07/04 01:16:38;;;;;;;5.20;4.47;;;;;;;17.67;73.50;100532.63;1668750;84;21043;-82
2022/07/04 01:19:05;;;;;;;6.50;4.40;;;;;;;17.58;73.34;100535.39;1663406;84;21142;-82
2022/07/04 01:21:33;;;;;;;4.72;4.15;;;;;;;17.47;73.36;100537.40;1663099;84;21318;-82
2022/07/04 01:24:00;;;;;;;4.85;4.40;;;;;;;17.36;73.28;100529.28;1663468;84;21068;-82
2022/07/04 01:26:30;;;;;;;4.83;4.33;;;;;;;17.28;73.40;100532.89;1663466;84;21080;-82
2022/07/04 01:28:56;;;;;;;;;;;;;;;17.20;73.45;100528.06;1665671;84;21101;-82
2022/07/04 01:31:23;;;;;;;6.25;4.45;;;;;;;17.10;73.71;100532.25;1663477;84;21207;-82
2022/07/04 01:33:50;;;;;;;7.15;4.37;;;;;;;17.01;73.71;100525.70;1668507;84;21524;-82
2022/07/04 01:36:17;;;;;;;4.83;4.25;;;;;;;16.93;73.69;100517.38;1663283;84;21081;-82
2022/07/04 01:38:44;;;;;;;8.80;4.65;;;;;;;16.86;73.91;100517.39;1663185;84;21067;-82
2022/07/04 01:41:11;;;;;;;6.65;3.85;;;;;;;16.80;73.95;100520.42;1664099;84;21506;-82
2022/07/04 01:43:38;;;;;;;6.33;4.70;;;;;;;16.71;74.39;100510.74;1663210;84;21158;-82
2022/07/04 01:46:05;;;;;;;6.08;4.78;;;;;;;16.71;74.39;100510.74;1663371;84;21013;-82
2022/07/04 01:48:32;;;;;;;6.20;5.08;;;;;;;16.69;74.37;100511.78;1663412;84;21616;-81
2022/07/04 01:50:59;;;;;;;5.12;4.62;;;;;;;16.62;74.41;100515.73;1663094;84;21585;-82
2022/07/04 01:53:26;;;;;;;5.47;4.90;;;;;;;16.58;74.47;100508.94;1663395;84;21068;-82
2022/07/04 01:55:53;;;;;;;6.78;4.90;;;;;;;16.51;74.58;100503.98;1663142;84;21967;-82
2022/07/04 01:58:20;;;;;;;5.53;4.67;;;;;;;16.46;74.73;100504.76;1663300;84;21060;-81
2022/07/04 02:03:32;;;;;;;5.37;4.72;;;;;;;16.40;74.99;100495.00;1663669;84;21061;-82
2022/07/04 02:05:59;;;;;;;10.53;5.87;;;;;;;16.35;74.97;100497.94;1663328;84;21064;-82
2022/07/04 02:09:14;;;;;;;5.70;5.05;;;;;;;16.27;75.15;100491.77;1663386;84;21128;-81
2022/07/04 02:10:55;;;;;;;6.22;5.62;;;;;;;16.23;75.32;100494.20;1664578;84;21066;-81
2022/07/04 02:13:21;;;;;;;6.12;5.53;;;;;;;16.21;75.66;100500.08;1668586;84;21055;-82
2022/07/04 02:15:48;;;;;;;6.67;6.03;;;;;;;16.20;75.67;100497.50;1663347;84;21057;-82
2022/07/04 02:18:15;;;;;;;6.72;5.72;;;;;;;16.15;75.77;100498.24;1663195;84;22108;-81
2022/07/04 02:20:42;;;;;;;6.72;5.55;;;;;;;16.12;75.91;100499.27;1663323;84;21133;-82
2022/07/04 02:23:09;;;;;;;7.28;6.05;;;;;;;16.08;75.90;100499.09;1663270;84;21056;-82
2022/07/04 02:25:36;;;;;;;7.55;6.33;;;;;;;16.08;76.28;100506.17;1663345;84;21132;-81
2022/07/04 02:28:05;;;;;;;6.50;5.90;;;;;;;16.04;76.14;100506.32;1668641;84;21472;-82
2022/07/04 02:30:32;;;;;;;6.45;5.75;;;;;;;16.03;76.41;100502.46;1668708;84;21048;-81
2022/07/04 02:32:59;;;;;;;8.25;6.45;;;;;;;16.05;76.69;100505.40;1663216;84;21127;-82
2022/07/04 02:35:26;;;;;;;7.65;5.60;;;;;;;16.11;76.67;100504.67;1663250;84;21096;-82
2022/07/04 02:37:53;;;;;;;7.25;6.45;;;;;;;16.15;76.75;100504.85;1668657;84;21030;-81
2022/07/04 02:40:20;;;;;;;7.85;6.53;;;;;;;16.24;77.03;100495.92;1668788;84;21541;-82
2022/07/04 02:42:47;;;;;;;7.65;6.95;;;;;;;16.37;77.31;100497.35;1663363;84;21488;-81
2022/07/04 02:45:14;;;;;;;8.05;6.90;;;;;;;16.48;77.37;100503.33;1663548;84;21055;-82
2022/07/04 02:47:41;;;;;;;8.58;6.40;;;;;;;16.54;77.07;100505.59;1663226;84;21073;-82
2022/07/04 02:50:08;;;;;;;7.85;6.80;;;;;;;16.60;77.12;100505.70;1663453;84;21545;-81
2022/07/04 02:52:35;;;;;;;7.42;6.65;;;;;;;16.70;77.04;100504.20;1663181;84;21033;-82
2022/07/04 02:55:02;;;;;;;7.53;6.83;;;;;;;16.80;76.99;100509.36;1663630;84;21112;-81
2022/07/04 02:57:29;;;;;;;7.53;6.72;;;;;;;16.90;76.86;100503.02;1663183;84;22286;-82
2022/07/04 02:59:56;;;;;;;6.62;6.00;;;;;;;16.97;76.63;100499.05;1663528;84;21103;-81
2022/07/04 03:02:23;;;;;;;6.97;6.37;;;;;;;17.05;76.53;100494.61;1663103;84;21073;-81
2022/07/04 03:04:50;;;;;;;7.20;6.50;;;;;;;17.12;76.46;100492.78;1663626;84;21065;-81
2022/07/04 03:07:18;;;;;;;7.95;7.05;;;;;;;17.18;76.30;100490.22;1663148;84;21096;-81
2022/07/04 03:09:45;;;;;;;7.22;6.53;;;;;;;17.30;76.16;100488.61;1668838;84;21176;-82
2022/07/04 03:12:12;;;;;;;7.55;6.80;;;;;;;17.30;76.16;100488.61;1668849;84;21548;-81
2022/07/04 03:14:39;;;;;;;8.00;7.25;;;;;;;17.34;76.02;100484.80;1663237;84;21068;-81
2022/07/04 03:17:06;;;;;;;7.53;6.83;;;;;;;17.37;75.85;100478.83;1668591;84;21069;-82
2022/07/04 03:19:33;;;;;;;6.90;6.30;;;;;;;17.37;75.85;100478.83;1663502;84;21096;-81
2022/07/04 03:22:00;;;;;;;9.53;7.22;;;;;;;17.45;75.63;100492.07;1668501;84;21143;-81
2022/07/04 03:24:27;;;;;;;7.87;6.78;;;;;;;17.47;75.56;100496.33;1668761;84;21071;-81
2022/07/04 03:26:54;;;;;;;7.85;6.50;;;;;;;17.49;75.55;100493.59;1663284;84;21527;-82
2022/07/04 03:29:21;;;;;;;8.20;6.20;;;;;;;17.49;75.33;100491.79;1663426;84;21639;-81
2022/07/04 03:31:48;;;;;;;7.22;6.55;;;;;;;17.49;75.33;100491.79;1668645;84;21099;-81
2022/07/04 03:34:15;;;;;;;7.80;6.60;;;;;;;17.56;75.28;100496.20;1663205;84;21108;-82
2022/07/04 03:36:41;;;;;;;6.90;6.28;;;;;;;17.58;75.21;100494.31;1663232;84;21630;-82
2022/07/04 03:39:08;;;;;;;6.72;6.12;;;;;;;17.58;75.10;100496.48;1663170;84;21533;-82
2022/07/04 03:41:36;;;;;;;6.75;6.03;;;;;;;17.62;75.15;100501.10;1663531;84;20960;-82
2022/07/04 03:44:04;;;;;;;7.67;6.78;;;;;;;17.66;75.01;100507.08;1663457;84;21609;-82
2022/07/04 03:46:31;;;;;;;6.37;5.78;;;;;;;17.69;75.02;100499.77;1664850;84;21875;-86
2022/07/04 03:48:59;;;;;;;7.62;6.55;;;;;;;17.69;75.02;100499.77;1669690;84;21563;-83
2022/07/04 03:51:25;;;;;;;6.22;5.62;;;;;;;17.76;74.95;100503.73;1671308;84;21086;-86
2022/07/04 03:53:53;;;;;;;7.00;5.78;;;;;;;17.81;74.88;100506.09;1665038;84;21498;-82
2022/07/04 03:56:20;;;;;;;7.00;6.00;;;;;;;17.85;74.96;100500.98;1664784;84;21143;-87
2022/07/04 03:58:50;;;;;;;6.72;6.12;;;;;;;17.89;75.03;100495.84;1666853;84;22300;-81
2022/07/04 04:01:17;;;;;;;;;;;;;;;17.93;74.99;100497.80;1671061;84;21065;-82
2022/07/04 04:06:31;;;;;;;7.35;5.78;;;;;;;17.98;74.70;100504.50;1662313;84;21522;-82
2022/07/04 04:08:58;;;;;;;7.97;6.00;;;;;;;18.01;74.63;100508.75;1665364;84;21482;-86
2022/07/04 04:11:25;;;;;;;8.08;6.00;;;;;;;18.02;74.54;100506.02;1664302;84;21089;-82
2022/07/04 04:13:52;;;;;;;6.75;6.10;;;;;;;18.05;74.55;100511.11;1663737;84;21056;-86
2022/07/04 04:16:19;;;;;;;8.60;6.35;;;;;;;18.09;74.51;100509.09;1667371;84;21073;-82
2022/07/04 04:18:46;;;;;;;6.90;6.25;;;;;;;18.12;74.43;100512.86;1666415;84;21595;-83
2022/07/04 04:21:13;;;;;;;8.48;6.72;;;;;;;18.14;74.40;100510.12;1668233;84;21040;-82
2022/07/04 04:23:40;;;;;;;7.83;7.05;;;;;;;18.16;74.29;100509.07;1665279;84;21530;-82
2022/07/04 04:26:07;;;;;;;7.50;6.67;;;;;;;18.19;74.18;100509.34;1679278;84;21437;-83
2022/07/04 04:28:34;;;;;;;6.95;6.28;;;;;;;18.20;74.15;100512.36;1671110;84;21029;-83
2022/07/04 04:31:01;;;;;;;7.08;6.37;;;;;;;18.20;74.16;100505.24;1666254;84;21530;-82
2022/07/04 04:33:28;;;;;;;7.95;6.20;;;;;;;18.23;74.05;100502.38;1668120;84;21195;-82
2022/07/04 04:35:56;;;;;;;6.87;6.25;;;;;;;18.27;74.13;100503.05;1632807;86;21508;-82
2022/07/04 04:38:23;;;;;;;7.08;6.37;;;;;;;18.32;74.04;100508.90;1637364;85;21119;-82
2022/07/04 04:40:50;;;;;;;6.97;5.50;;;;;;;18.36;73.99;100503.73;1632456;86;21586;-82
2022/07/04 04:43:17;;;;;;;6.17;5.58;;;;;;;18.41;73.95;100496.32;1638467;85;21066;-82
2022/07/04 04:45:44;;;;;;;7.58;6.12;;;;;;;18.44;73.80;100497.44;1632668;86;21041;-82
2022/07/04 04:48:11;;;;;;;6.45;5.70;;;;;;;18.48;73.80;100504.25;1636334;86;21111;-81
2022/07/04 04:50:38;;;;;;;6.95;5.75;;;;;;;18.54;73.74;100508.73;1634964;86;21057;-82
2022/07/04 04:53:05;;;;;;;8.55;6.70;;;;;;;18.57;73.64;100504.55;1647522;86;21059;-81
2022/07/04 04:55:32;;;;;;;10.23;6.20;;;;;;;18.62;73.62;100508.61;1632452;86;21544;-82
2022/07/04 04:57:59;;;;;;;7.15;6.45;;;;;;;18.66;73.63;100510.08;1632729;86;21532;-84
2022/07/04 05:00:26;;;;;;;8.05;6.08;;;;;;;18.70;73.49;100518.67;1632357;86;21127;-82
2022/07/04 05:02:53;;;;;;;7.37;6.67;;;;;;;18.72;73.50;100521.60;1632616;86;21083;-82
2022/07/04 05:05:20;;;;;;;8.45;6.15;;;;;;;18.75;73.19;100517.92;1632386;86;21118;-82
2022/07/04 05:07:47;;;;;;;7.80;6.30;;;;;;;18.78;73.10;100512.88;1663710;86;20954;-82
2022/07/04 05:10:15;;;;;;;9.18;5.95;;;;;;;18.82;73.13;100525.00;1676239;85;21680;-82
2022/07/04 05:12:43;;;;;;;7.78;5.97;;;;;;;18.86;73.20;100518.02;1676239;85;21872;-82
2022/07/04 05:15:11;;;;;;;7.65;6.17;;;;;;;18.91;73.12;100526.52;1676356;85;21031;-82
2022/07/04 05:17:38;;;;;;;8.23;6.10;;;;;;;18.95;73.18;100533.79;1676284;85;21034;-83
2022/07/04 05:20:07;;;;;;;7.33;5.87;;;;;;;19.01;73.24;100540.02;1676423;85;21479;-82
2022/07/04 05:22:34;;;;;;;8.28;6.50;;;;;;;19.05;73.10;100542.82;1676587;85;21519;-83
2022/07/04 05:25:01;;;;;;;8.20;5.85;;;;;;;19.08;72.88;100547.07;1665615;85;21553;-84
2022/07/04 05:27:28;;;;;;;10.00;5.83;;;;;;;19.11;72.82;100556.99;1641666;87;21536;-84
2022/07/04 05:29:55;;;;;;;6.50;5.53;;;;;;;19.15;72.78;100561.64;1673717;85;21520;-83
2022/07/04 05:32:22;;;;;;;7.20;5.28;;;;;;;19.20;72.85;100556.82;1676395;85;21011;-84
2022/07/04 05:34:49;;;;;;;5.15;4.65;;;;;;;19.27;72.89;100562.09;1655886;85;21081;-84
2022/07/04 05:37:17;;;;;;;6.20;5.25;;;;;;;19.36;72.75;100556.59;1662536;85;21765;-85
2022/07/04 05:39:45;;;;;;;8.55;5.25;;;;;;;19.46;72.69;100570.09;1658847;85;21119;-84
2022/07/04 05:42:13;;;;;;;7.35;4.95;;;;;;;19.53;72.62;100574.83;1676170;85;20952;-88
2022/07/04 05:44:40;;;;;;;6.25;5.50;;;;;;;19.63;72.53;100571.53;1675632;85;21030;-84
2022/07/04 05:47:07;;;;;;;8.53;5.10;;;;;;;19.69;72.44;100575.95;1672331;85;21483;-79
2022/07/04 05:49:34;;;;;;;6.10;5.00;;;;;;;19.76;72.40;100575.89;1641444;85;22040;-82
2022/07/04 05:52:02;;;;;;;6.42;4.87;;;;;;;19.85;72.35;100573.03;1641586;85;21062;-84
2022/07/04 05:54:28;;;;;;;7.45;4.70;;;;;;;19.94;72.37;100568.84;1641305;85;21063;-80
2022/07/04 05:56:55;;;;;;;9.23;5.15;;;;;;;20.04;72.27;100570.72;1641812;85;21500;-83
2022/07/04 05:59:22;;;;;;;5.03;4.47;;;;;;;20.15;72.24;100574.41;1641622;85;21121;-81
2022/07/04 06:01:49;;;;;;;6.28;4.55;;;;;;;20.29;72.20;100580.88;1641937;85;21109;-81
2022/07/04 06:04:17;;;;;;;5.10;4.60;;;;;;;20.40;72.15;100579.58;1641542;85;21068;-80
2022/07/04 06:06:45;;;;;;;5.37;4.30;;;;;;;20.52;72.03;100574.30;1641872;85;21062;-82
2022/07/04 06:09:11;;;;;;;5.03;3.90;;;;;;;20.63;71.89;100575.69;1641628;85;21099;-80
2022/07/04 06:11:38;;;;;;;5.22;3.80;;;;;;;20.77;71.57;100574.14;1641905;85;21070;-81
2022/07/04 06:14:06;;;;;;;5.17;3.95;;;;;;;20.91;71.32;100573.08;1641728;85;21923;-82
2022/07/04 06:16:33;;;;;;;4.78;3.42;;;;;;;21.05;70.92;100570.17;1641646;85;21035;-87
2022/07/04 06:19:00;;;;;;;6.12;3.70;;;;;;;21.20;70.67;100570.81;1641624;85;21562;-77
2022/07/04 06:21:27;;;;;;;3.40;2.80;;;;;;;21.38;70.16;100560.52;1641857;85;21082;-81
2022/07/04 06:23:54;;;;;;;3.45;2.95;;;;;;;21.55;69.70;100563.16;1641638;85;21099;-81
2022/07/04 06:26:21;;;;;;;4.53;2.90;;;;;;;21.71;69.36;100564.96;1641670;85;21162;-80
2022/07/04 06:28:48;;;;;;;4.67;2.95;;;;;;;21.87;68.86;100562.39;1641665;85;21034;-80
2022/07/04 06:31:16;;;;;;;6.58;2.87;;;;;;;22.10;68.51;100553.32;1641714;85;21047;-80
2022/07/04 06:36:29;;;;;;;4.50;2.70;;;;;;;22.44;67.54;100552.70;1641354;85;21081;-80
2022/07/04 06:38:56;;;;;;;6.50;2.87;;;;;;;22.62;66.95;100555.65;1641489;85;21160;-81
2022/07/04 06:41:23;;;;;;;4.22;2.70;;;;;;;22.81;66.29;100556.72;1641555;85;20967;-78
2022/07/04 06:43:49;;;;;;;5.20;2.65;;;;;;;22.96;65.93;100554.11;1641657;85;21054;-83
2022/07/04 06:46:16;;;;;;;8.43;2.87;;;;;;;23.12;65.32;100557.14;1641521;85;21050;-82
2022/07/04 06:48:43;;;;;;;6.17;2.72;;;;;;;23.26;65.08;100553.77;1641578;85;21038;-86
2022/07/04 06:51:11;;;;;;;6.03;2.70;;;;;;;23.38;64.44;100566.04;1641604;85;21114;-82
2022/07/04 06:53:38;;;;;;;8.60;3.22;;;;;;;23.44;63.71;100570.00;1641581;85;21401;-86
2022/07/04 06:56:05;;;;;;;4.60;2.37;;;;;;;23.46;63.24;100572.05;1641402;85;21615;-86
2022/07/04 06:58:32;;;;;;;4.90;2.80;;;;;;;23.45;62.93;100568.54;1641670;85;21070;-84
2022/07/04 07:00:59;;;;;;;4.17;3.10;;;;;;;23.48;62.81;100572.28;1641666;85;21061;-83
2022/07/04 07:03:27;;;;;;;3.22;2.77;;;;;;;23.52;62.71;100571.50;1641758;85;21383;-83
2022/07/04 07:05:56;;;;;;;3.77;2.92;;;;;;;23.57;62.32;100569.27;1641450;85;21054;-82
2022/07/04 07:08:23;;;;;;;4.55;3.12;;;;;;;23.59;62.12;100570.83;1641615;85;21122;-85
2022/07/04 07:10:50;;;;;;;5.97;3.10;;;;;;;23.64;61.89;100573.11;1641474;85;21047;-84
2022/07/04 07:13:17;;;;;;;3.47;3.17;;;;;;;23.65;61.84;100568.09;1641902;85;21092;-82
2022/07/04 07:15:44;;;;;;;4.83;3.45;;;;;;;23.70;61.58;100575.72;1641482;85;21136;-87
2022/07/04 07:18:11;;;;;;;9.43;3.62;;;;;;;23.72;61.58;100572.43;1641486;85;21047;-82
2022/07/04 07:20:38;;;;;;;3.90;3.50;;;;;;;23.74;61.35;100572.65;1641870;85;21074;-86
2022/07/04 07:23:05;;;;;;;4.03;3.62;;;;;;;23.80;61.28;100584.63;1641526;85;21090;-86
2022/07/04 07:25:32;;;;;;;5.30;3.80;;;;;;;23.84;61.02;100584.73;1641611;85;21058;-87
2022/07/04 07:27:59;;;;;;;3.95;3.65;;;;;;;23.86;60.79;100585.45;1641530;85;21123;-82
2022/07/04 07:30:26;;;;;;;4.25;3.67;;;;;;;23.89;60.76;100578.47;1641478;85;21050;-89
2022/07/04 07:32:53;;;;;;;5.65;3.70;;;;;;;23.97;60.69;100575.08;1641553;85;21038;-81
2022/07/04 07:35:21;;;;;;;5.15;3.30;;;;;;;24.04;60.56;100573.05;1652056;84;21073;-82
2022/07/04 07:37:48;;;;;;;4.55;3.72;;;;;;;24.11;60.46;100573.35;1666011;84;21104;-85
2022/07/04 07:40:15;;;;;;;3.98;3.62;;;;;;;24.17;60.08;100573.28;1666140;84;21128;-86
2022/07/04 07:42:42;;;;;;;4.10;3.70;;;;;;;24.22;60.11;100579.04;1665976;84;20972;-82
2022/07/04 07:45:10;;;;;;;4.97;4.20;;;;;;;24.27;59.88;100574.11;1665962;84;21131;-85
2022/07/04 07:47:37;;;;;;;6.15;4.15;;;;;;;24.30;59.82;100577.84;1665882;84;21033;-79
2022/07/04 07:50:06;;;;;;;5.50;3.95;;;;;;;24.31;59.70;100574.70;1668611;84;21352;-82
2022/07/04 07:52:33;;;;;;;4.42;4.03;;;;;;;24.34;59.47;100580.61;1663196;84;21179;-82
2022/07/04 07:55:01;;;;;;;4.03;3.62;;;;;;;24.35;59.43;100584.12;1663231;84;21064;-83
2022/07/04 07:57:28;;;;;;;4.60;4.10;;;;;;;24.36;59.28;100575.09;1662955;84;21083;-83
2022/07/04 07:59:56;;;;;;;9.25;4.20;;;;;;;24.37;59.29;100576.80;1663362;84;21041;-85
2022/07/04 08:04:34;;;;;;;4.62;3.87;;;;;;;24.41;59.38;100584.39;1663015;84;21029;-86
2022/07/04 08:04:52;;;;;;;4.90;4.42;;;;;;;24.46;59.38;100584.02;1664649;84;21110;-86
2022/07/04 08:07:19;;;;;;;6.50;4.37;;;;;;;24.52;59.26;100590.63;1662920;84;21065;-85
2022/07/04 08:09:46;;;;;;;4.97;4.45;;;;;;;24.59;59.26;100593.95;1663306;84;21131;-83
2022/07/04 08:12:13;;;;;;;7.03;4.80;;;;;;;24.69;59.19;100596.13;1663187;84;21009;-84
2022/07/04 08:14:40;;;;;;;5.30;4.80;;;;;;;24.75;59.13;100591.16;1663266;84;21064;-90
2022/07/04 08:17:07;;;;;;;6.12;4.97;;;;;;;24.79;59.02;100608.16;1663216;84;21132;-86
2022/07/04 08:19:34;;;;;;;6.67;5.10;;;;;;;24.84;58.80;100603.22;1668358;84;21554;-82
2022/07/04 08:22:02;;;;;;;9.65;5.40;;;;;;;24.88;58.85;100611.31;1668394;84;21020;-88
2022/07/04 08:24:29;;;;;;;6.45;5.53;;;;;;;24.94;58.69;100599.16;1663294;84;21549;-82
2022/07/04 08:26:57;;;;;;;8.78;5.58;;;;;;;25.00;58.75;100596.39;1668644;84;21039;-82
2022/07/04 08:29:23;;;;;;;5.60;5.10;;;;;;;25.09;58.50;100604.92;1663013;84;21125;-86
2022/07/04 08:31:50;;;;;;;6.70;5.08;;;;;;;25.11;58.27;100601.61;1663441;84;21072;-88
2022/07/04 08:34:17;;;;;;;5.62;4.97;;;;;;;25.16;58.04;100596.66;1663060;84;21033;-82
2022/07/04 08:36:44;;;;;;;5.33;4.58;;;;;;;25.21;57.84;100599.75;1636348;84;21079;-83
2022/07/04 08:39:11;;;;;;;5.28;4.87;;;;;;;25.28;57.77;100606.73;1632008;85;21031;-83
2022/07/04 08:41:40;;;;;;;4.87;4.50;;;;;;;25.35;57.74;100608.66;1632382;85;21138;-90
2022/07/04 08:44:10;;;;;;;6.17;5.17;;;;;;;25.45;57.44;100600.58;1632170;85;21047;-88
2022/07/04 08:46:41;;;;;;;10.30;4.72;;;;;;;25.50;57.20;100607.70;1632122;85;22114;-85
2022/07/04 08:49:22;;;;;;;6.00;4.70;;;;;;;25.56;57.20;100608.94;1632276;85;21051;-88
2022/07/04 08:51:59;;;;;;;5.28;4.80;;;;;;;25.63;56.97;100597.09;1632364;86;21627;-80
2022/07/04 08:59:59;;;;;;;5.83;4.67;;;;;;;25.90;56.06;100610.53;1632407;85;22164;-84
2022/07/04 09:02:29;;;;;;;9.03;4.95;;;;;;;25.98;55.93;100610.63;1632094;85;21060;-85
2022/07/04 09:04:56;;;;;;;5.97;5.17;;;;;;;26.03;55.78;100610.18;1632450;86;21055;-87
2022/07/04 09:07:23;;;;;;;5.33;4.65;;;;;;;26.11;55.65;100618.83;1632124;85;21132;-84
2022/07/04 09:09:51;;;;;;;4.72;4.33;;;;;;;26.18;55.35;100628.79;1632314;85;21062;-86
2022/07/04 09:12:18;;;;;;;6.47;4.70;;;;;;;26.25;55.19;100629.87;1632125;86;21132;-80
2022/07/04 09:14:46;;;;;;;5.28;4.80;;;;;;;26.31;55.06;100627.59;1632497;86;21063;-80
2022/07/04 09:17:13;;;;;;;5.78;4.90;;;;;;;26.36;54.83;100627.47;1632177;86;21016;-83
2022/07/04 09:19:40;;;;;;;5.83;4.65;;;;;;;26.41;54.63;100633.70;1632191;85;21338;-78
2022/07/04 09:22:12;;;;;;;5.33;4.80;;;;;;;26.46;54.67;100630.90;1632015;86;21524;-82
2022/07/04 09:24:51;;;;;;;5.70;4.53;;;;;;;26.59;54.58;100633.75;1632221;85;21580;-85
2022/07/04 09:27:47;;;;;;;6.33;4.55;;;;;;;26.64;54.15;100636.31;1634579;86;21134;-88
2022/07/04 09:30:17;;;;;;;5.85;4.80;;;;;;;26.69;53.86;100630.48;1633162;86;21062;-86
2022/07/04 09:32:51;;;;;;;4.90;4.40;;;;;;;26.75;53.66;100633.05;1635972;86;21145;-81
2022/07/04 09:35:23;;;;;;;4.35;3.95;;;;;;;26.81;53.36;100629.72;1633949;85;21043;-85
2022/07/04 09:38:00;;;;;;;4.42;4.03;;;;;;;26.96;53.57;100629.98;1633610;86;21098;-86
2022/07/04 09:40:33;;;;;;;5.97;4.12;;;;;;;27.07;52.96;100634.59;1632243;86;21537;-87
2022/07/04 09:43:07;;;;;;;4.20;3.80;;;;;;;27.17;52.52;100632.35;1634541;86;21369;-82
2022/07/04 09:45:38;;;;;;;4.37;3.98;;;;;;;27.22;51.95;100628.18;1630678;85;21107;-83
2022/07/04 09:48:05;;;;;;;6.10;4.05;;;;;;;27.28;51.75;100628.05;1608337;86;21581;-84
2022/07/04 09:50:32;;;;;;;3.77;3.40;;;;;;;27.34;51.49;100621.50;1635897;85;21575;-87
2022/07/04 09:53:05;;;;;;;4.10;3.80;;;;;;;27.44;51.37;100624.09;1632522;86;21044;-86
2022/07/04 09:55:38;;;;;;;3.87;3.58;;;;;;;27.56;51.25;100621.95;1632767;86;21450;-88
2022/07/04 09:58:10;;;;;;;5.95;3.67;;;;;;;27.72;51.02;100623.36;1632652;86;21115;-87
2022/07/04 10:00:40;;;;;;;5.92;4.33;;;;;;;27.81;50.60;100618.88;1631145;86;21061;-88
2022/07/04 10:03:27;;;;;;;4.15;3.60;;;;;;;27.91;50.38;100621.45;1633770;85;21506;-86
2022/07/04 10:06:12;;;;;;;4.37;3.35;;;;;;;28.00;50.07;100628.02;1611829;86;21641;-88
2022/07/04 10:08:41;;;;;;;4.12;3.67;;;;;;;28.12;49.81;100626.36;1621057;87;21085;-81
2022/07/04 10:11:11;;;;;;;3.90;3.35;;;;;;;28.27;49.47;100627.41;1660068;85;21143;-87
2022/07/04 10:13:40;;;;;;;5.12;3.27;;;;;;;28.38;49.10;100623.52;1647190;85;21075;-81
2022/07/04 10:16:10;;;;;;;5.37;3.40;;;;;;;28.51;49.04;100624.41;1657669;85;21097;-85
2022/07/04 10:18:42;;;;;;;3.70;3.25;;;;;;;28.63;48.79;100621.22;1662165;86;21094;-86
2022/07/04 10:21:09;;;;;;;7.97;3.40;;;;;;;28.74;48.34;100625.92;1659963;85;21061;-86
2022/07/04 10:23:37;;;;;;;5.50;3.65;;;;;;;28.80;47.69;100623.41;1649820;85;21216;-86
2022/07/04 10:26:05;;;;;;;5.05;3.30;;;;;;;28.79;47.55;100627.61;1636977;85;21548;-86
2022/07/04 10:28:37;;;;;;;5.47;3.30;;;;;;;28.84;47.33;100627.95;1640252;85;21078;-84
2022/07/04 10:31:07;;;;;;;4.75;3.62;;;;;;;28.93;46.96;100617.98;1639821;85;21087;-85
2022/07/04 10:33:36;;;;;;;4.55;3.52;;;;;;;29.06;47.06;100619.17;1641021;85;21085;-83
2022/07/04 10:36:17;;;;;;;5.12;3.30;;;;;;;29.24;46.76;100617.63;1657382;84;21235;-87
2022/07/04 10:39:00;;;;;;;5.30;2.80;;;;;;;29.47;46.53;100616.35;1673936;84;21548;-84
2022/07/04 10:41:30;;;;;;;3.40;2.62;;;;;;;29.75;45.95;100606.47;1668176;84;21411;-84
2022/07/04 10:44:13;;;;;;;3.58;3.12;;;;;;;30.05;45.37;100617.45;1668480;84;21360;-88
2022/07/04 10:46:46;;;;;;;3.03;2.73;;;;;;;30.39;44.98;100603.55;1686245;84;21584;-86
2022/07/04 10:49:21;;;;;;;3.20;2.90;;;;;;;30.77;45.04;100602.21;1669613;84;21191;-84
2022/07/04 10:51:52;;;;;;;3.98;3.20;;;;;;;31.16;44.40;100602.00;1667634;84;21377;-83
2022/07/04 10:54:37;;;;;;;4.50;3.20;;;;;;;31.49;44.39;100598.42;1663337;84;21072;-85
2022/07/04 10:57:15;;;;;;;4.17;2.90;;;;;;;31.85;43.87;100602.19;1696744;84;21020;-84
2022/07/04 10:59:57;;;;;;;2.17;2.05;;;;;;;32.14;43.12;100602.09;1699655;84;21060;-85
2022/07/04 11:02:31;;;;;;;6.35;2.40;;;;;;;32.40;42.22;100599.34;1697488;84;21117;-84
2022/07/04 11:05:06;;;;;;;3.10;2.35;;;;;;;32.59;41.41;100595.12;1699586;84;21307;-84
2022/07/04 11:07:42;;;;;;;2.40;2.00;;;;;;;32.80;41.11;100589.66;1699185;84;21040;-85
2022/07/04 11:10:21;;;;;;;3.45;2.40;;;;;;;32.98;40.68;100598.68;1699511;84;21079;-85
2022/07/04 11:13:02;;;;;;;2.85;2.20;;;;;;;33.18;40.20;100597.47;1699256;84;21596;-85
2022/07/04 11:15:40;;;;;;;4.28;2.20;;;;;;;33.39;39.81;100587.01;1699481;84;21157;-85
2022/07/04 11:18:14;;;;;;;2.50;2.30;;;;;;;33.46;39.19;100581.62;1699508;84;21532;-85
2022/07/04 11:20:51;;;;;;;2.60;2.10;;;;;;;33.47;38.67;100584.12;1699556;84;21099;-84
2022/07/04 11:23:19;;;;;;;1.70;1.60;;;;;;;33.53;38.65;100586.58;1697226;84;21051;-85
2022/07/04 11:25:56;;;;;;;2.75;1.90;;;;;;;33.67;38.29;100587.47;1699583;84;21055;-85
2022/07/04 11:28:25;;;;;;;3.02;1.77;;;;;;;33.71;37.64;100590.11;1696795;84;22059;-85
2022/07/04 11:31:02;;;;;;;1.90;1.80;;;;;;;33.80;37.29;100589.41;1699501;84;21024;-85
2022/07/04 11:33:33;;;;;;;4.17;2.30;;;;;;;33.78;36.97;100586.04;1699231;84;21076;-85
2022/07/04 11:36:20;;;;;;;3.42;2.02;;;;;;;33.76;36.95;100589.81;1695188;83;21706;-84
2022/07/04 11:38:58;;;;;;;2.80;1.77;;;;;;;33.85;36.92;100586.38;1676136;85;21103;-84
2022/07/04 11:47:18;;;;;;;4.15;1.87;;;;;;;34.06;36.11;100592.23;1642167;85;20959;-85
2022/07/04 11:49:55;;;;;;;2.02;1.82;;;;;;;34.16;35.92;100587.20;1645313;85;21062;-93
2022/07/04 11:52:29;;;;;;;2.37;1.70;;;;;;;34.27;35.61;100584.39;1664878;85;21058;-86